sensor_id;sensor_type;location;lat;lon;timestamp;pressure;altitude;pressure_sealevel;temperature;humidity
63907;BME280;50075;49.484;11.238;2023-02-01T00:01:45;98295.22;;;8.38;100.00
63907;BME280;50075;49.484;11.238;2023-02-01T00:04:12;98297.50;;;8.93;100.00
63907;BME280;50075;49.484;11.238;2023-02-01T00:06:37;98300.97;;;8.97;100.00
63907;BME280;50075;49.484;11.238;2023-02-01T00:09:03;98292.63;;;9.40;100.00
63907;BME280;50075;49.484;11.238;2023-02-01T00:11:29;98294.47;;;8.50;100.00
63907;BME280;50075;49.484;11.238;2023-02-01T00:13:54;98296.78;;;9.16;100.00
63907;BME280;50075;49.484;11.238;2023-02-01T00:16:28;98295.88;;;9.08;100.00
63907;BME280;50075;49.484;11.238;2023-02-01T00:19:10;98290.84;;;7.59;100.00
63907;BME280;50075;49.484;11.238;2023-02-01T00:21:35;98292.56;;;8.33;100.00
63907;BME280;50075;49.484;11.238;2023-02-01T00:24:01;98290.75;;;8.26;100.00
63907;BME280;50075;49.484;11.238;2023-02-01T00:26:34;98294.16;;;8.18;100.00
63907;BME280;50075;49.484;11.238;2023-02-01T00:29:01;98294.63;;;7.86;100.00
63907;BME280;50075;49.484;11.238;2023-02-01T00:31:27;98286.38;;;9.13;100.00
63907;BME280;50075;49.484;11.238;2023-02-01T00:33:52;98286.47;;;8.28;100.00
63907;BME280;50075;49.484;11.238;2023-02-01T00:36:17;98282.66;;;8.77;100.00
63907;BME280;50075;49.484;11.238;2023-02-01T00:38:43;98285.66;;;8.32;100.00
63907;BME280;50075;49.484;11.238;2023-02-01T00:41:13;98282.97;;;9.20;100.00
63907;BME280;50075;49.484;11.238;2023-02-01T00:43:39;98277.97;;;9.48;100.00
63907;BME280;50075;49.484;11.238;2023-02-01T00:46:05;98276.63;;;10.49;100.00
63907;BME280;50075;49.484;11.238;2023-02-01T00:48:31;98283.34;;;9.86;100.00
63907;BME280;50075;49.484;11.238;2023-02-01T00:51:04;98284.16;;;9.80;100.00
63907;BME280;50075;49.484;11.238;2023-02-01T00:53:30;98273.63;;;9.43;100.00
63907;BME280;50075;49.484;11.238;2023-02-01T00:55:56;98278.03;;;9.62;100.00
63907;BME280;50075;49.484;11.238;2023-02-01T00:58:22;98290.69;;;9.11;100.00
63907;BME280;50075;49.484;11.238;2023-02-01T01:01:00;98286.53;;;8.34;100.00
63907;BME280;50075;49.484;11.238;2023-02-01T01:03:26;98278.06;;;9.72;100.00
63907;BME280;50075;49.484;11.238;2023-02-01T01:05:56;98282.13;;;9.18;100.00
63907;BME280;50075;49.484;11.238;2023-02-01T01:08:22;98271.16;;;9.68;100.00
63907;BME280;50075;49.484;11.238;2023-02-01T01:10:47;98272.38;;;8.89;100.00
63907;BME280;50075;49.484;11.238;2023-02-01T01:13:14;98269.03;;;9.04;100.00
63907;BME280;50075;49.484;11.238;2023-02-01T01:15:40;98271.47;;;8.87;100.00
63907;BME280;50075;49.484;11.238;2023-02-01T01:18:06;98269.38;;;8.45;100.00
63907;BME280;50075;49.484;11.238;2023-02-01T01:20:34;98272.00;;;8.50;100.00
63907;BME280;50075;49.484;11.238;2023-02-01T01:23:00;98258.13;;;9.57;100.00
63907;BME280;50075;49.484;11.238;2023-02-01T01:25:25;98263.31;;;9.61;100.00
63907;BME280;50075;49.484;11.238;2023-02-01T01:27:51;98257.41;;;9.92;100.00
63907;BME280;50075;49.484;11.238;2023-02-01T01:30:17;98273.28;;;8.96;100.00
63907;BME280;50075;49.484;11.238;2023-02-01T01:32:43;98269.06;;;9.10;100.00
63907;BME280;50075;49.484;11.238;2023-02-01T01:35:08;98262.56;;;9.87;100.00
63907;BME280;50075;49.484;11.238;2023-02-01T01:37:33;98264.28;;;9.88;100.00
63907;BME280;50075;49.484;11.238;2023-02-01T01:40:00;98272.47;;;9.02;100.00
63907;BME280;50075;49.484;11.238;2023-02-01T01:42:26;98269.19;;;8.28;100.00
63907;BME280;50075;49.484;11.238;2023-02-01T01:45:04;98261.78;;;8.64;100.00
63907;BME280;50075;49.484;11.238;2023-02-01T01:47:35;98269.75;;;8.84;100.00
63907;BME280;50075;49.484;11.238;2023-02-01T01:50:04;98260.63;;;7.58;100.00
63907;BME280;50075;49.484;11.238;2023-02-01T01:52:30;98266.22;;;8.76;100.00
63907;BME280;50075;49.484;11.238;2023-02-01T01:54:57;98268.69;;;7.80;100.00
63907;BME280;50075;49.484;11.238;2023-02-01T01:57:27;98266.19;;;8.71;100.00
63907;BME280;50075;49.484;11.238;2023-02-01T02:00:03;98264.22;;;8.49;100.00
63907;BME280;50075;49.484;11.238;2023-02-01T02:02:28;98258.44;;;7.91;100.00
63907;BME280;50075;49.484;11.238;2023-02-01T02:04:54;98247.13;;;8.69;100.00
63907;BME280;50075;49.484;11.238;2023-02-01T02:07:28;98244.56;;;10.45;100.00
63907;BME280;50075;49.484;11.238;2023-02-01T02:09:56;98252.81;;;8.32;100.00
63907;BME280;50075;49.484;11.238;2023-02-01T02:12:21;98254.81;;;8.54;100.00
63907;BME280;50075;49.484;11.238;2023-02-01T02:14:47;98257.41;;;8.58;100.00
63907;BME280;50075;49.484;11.238;2023-02-01T02:17:30;98252.84;;;9.43;100.00
63907;BME280;50075;49.484;11.238;2023-02-01T02:29:28;98236.13;;;8.98;100.00
63907;BME280;50075;49.484;11.238;2023-02-01T02:35:18;98237.03;;;8.09;100.00
63907;BME280;50075;49.484;11.238;2023-02-01T02:40:31;98221.84;;;7.63;100.00
63907;BME280;50075;49.484;11.238;2023-02-01T02:45:51;98229.72;;;8.53;100.00
63907;BME280;50075;49.484;11.238;2023-02-01T02:48:46;98227.63;;;7.41;100.00
63907;BME280;50075;49.484;11.238;2023-02-01T02:51:38;98234.69;;;7.55;100.00
63907;BME280;50075;49.484;11.238;2023-02-01T02:54:28;98233.41;;;8.80;100.00
63907;BME280;50075;49.484;11.238;2023-02-01T02:57:35;98234.84;;;8.50;100.00
63907;BME280;50075;49.484;11.238;2023-02-01T03:00:32;98225.03;;;8.14;100.00
63907;BME280;50075;49.484;11.238;2023-02-01T03:03:17;98214.44;;;7.92;100.00
63907;BME280;50075;49.484;11.238;2023-02-01T03:06:00;98211.19;;;9.25;100.00
63907;BME280;50075;49.484;11.238;2023-02-01T03:08:28;98209.16;;;8.73;100.00
63907;BME280;50075;49.484;11.238;2023-02-01T03:11:04;98203.75;;;8.51;100.00
63907;BME280;50075;49.484;11.238;2023-02-01T03:13:40;98203.72;;;8.46;100.00
63907;BME280;50075;49.484;11.238;2023-02-01T03:19:03;98203.84;;;7.71;100.00
63907;BME280;50075;49.484;11.238;2023-02-01T03:21:59;98203.03;;;8.68;100.00
63907;BME280;50075;49.484;11.238;2023-02-01T03:27:05;98185.59;;;7.63;100.00
63907;BME280;50075;49.484;11.238;2023-02-01T03:29:41;98190.84;;;7.01;100.00
63907;BME280;50075;49.484;11.238;2023-02-01T03:32:10;98192.91;;;7.27;100.00
63907;BME280;50075;49.484;11.238;2023-02-01T03:34:36;98196.78;;;7.59;100.00
63907;BME280;50075;49.484;11.238;2023-02-01T03:37:05;98205.72;;;7.16;100.00
63907;BME280;50075;49.484;11.238;2023-02-01T03:42:13;98194.03;;;7.46;100.00
63907;BME280;50075;49.484;11.238;2023-02-01T03:44:41;98192.44;;;6.89;100.00
63907;BME280;50075;49.484;11.238;2023-02-01T03:47:14;98197.53;;;7.48;100.00
63907;BME280;50075;49.484;11.238;2023-02-01T03:49:45;98201.78;;;7.43;100.00
63907;BME280;50075;49.484;11.238;2023-02-01T03:52:17;98190.63;;;8.29;100.00
63907;BME280;50075;49.484;11.238;2023-02-01T03:54:44;98200.50;;;7.82;100.00
63907;BME280;50075;49.484;11.238;2023-02-01T03:57:13;98179.13;;;7.25;100.00
63907;BME280;50075;49.484;11.238;2023-02-01T03:59:44;98185.16;;;7.25;100.00
63907;BME280;50075;49.484;11.238;2023-02-01T04:02:10;98185.28;;;7.35;100.00
63907;BME280;50075;49.484;11.238;2023-02-01T04:04:37;98174.72;;;7.19;100.00
63907;BME280;50075;49.484;11.238;2023-02-01T04:07:02;98168.03;;;7.35;100.00
63907;BME280;50075;49.484;11.238;2023-02-01T04:09:28;98168.09;;;7.41;100.00
63907;BME280;50075;49.484;11.238;2023-02-01T04:11:53;98169.78;;;8.17;100.00
63907;BME280;50075;49.484;11.238;2023-02-01T04:14:19;98164.69;;;8.31;100.00
63907;BME280;50075;49.484;11.238;2023-02-01T04:16:44;98154.00;;;7.93;100.00
63907;BME280;50075;49.484;11.238;2023-02-01T04:19:10;98157.59;;;7.29;100.00
63907;BME280;50075;49.484;11.238;2023-02-01T04:21:35;98159.94;;;7.81;100.00
63907;BME280;50075;49.484;11.238;2023-02-01T04:24:00;98153.91;;;7.84;100.00
63907;BME280;50075;49.484;11.238;2023-02-01T04:26:26;98156.34;;;8.63;100.00
63907;BME280;50075;49.484;11.238;2023-02-01T04:28:51;98158.88;;;7.65;100.00
63907;BME280;50075;49.484;11.238;2023-02-01T04:31:18;98147.69;;;8.61;100.00
63907;BME280;50075;49.484;11.238;2023-02-01T04:33:51;98152.56;;;9.87;100.00
63907;BME280;50075;49.484;11.238;2023-02-01T04:36:17;98156.44;;;8.80;100.00
63907;BME280;50075;49.484;11.238;2023-02-01T04:38:44;98139.69;;;10.52;100.00
63907;BME280;50075;49.484;11.238;2023-02-01T04:41:10;98149.84;;;9.43;100.00
63907;BME280;50075;49.484;11.238;2023-02-01T04:43:35;98161.28;;;8.35;100.00
63907;BME280;50075;49.484;11.238;2023-02-01T04:46:00;98162.97;;;9.84;100.00
63907;BME280;50075;49.484;11.238;2023-02-01T04:48:26;98160.13;;;9.15;100.00
63907;BME280;50075;49.484;11.238;2023-02-01T04:50:52;98151.53;;;8.09;100.00
63907;BME280;50075;49.484;11.238;2023-02-01T04:53:18;98164.00;;;8.51;100.00
63907;BME280;50075;49.484;11.238;2023-02-01T04:55:44;98152.41;;;8.08;100.00
63907;BME280;50075;49.484;11.238;2023-02-01T04:58:10;98166.25;;;8.13;100.00
63907;BME280;50075;49.484;11.238;2023-02-01T05:00:36;98142.88;;;9.30;100.00
63907;BME280;50075;49.484;11.238;2023-02-01T05:03:02;98152.84;;;8.58;100.00
63907;BME280;50075;49.484;11.238;2023-02-01T05:05:28;98148.59;;;8.68;100.00
63907;BME280;50075;49.484;11.238;2023-02-01T05:07:53;98153.78;;;7.72;100.00
63907;BME280;50075;49.484;11.238;2023-02-01T05:10:19;98150.41;;;8.78;100.00
63907;BME280;50075;49.484;11.238;2023-02-01T05:12:44;98149.66;;;8.96;100.00
63907;BME280;50075;49.484;11.238;2023-02-01T05:15:29;98147.69;;;8.58;100.00
63907;BME280;50075;49.484;11.238;2023-02-01T05:17:54;98142.41;;;8.49;100.00
63907;BME280;50075;49.484;11.238;2023-02-01T05:20:20;98142.69;;;7.84;100.00
63907;BME280;50075;49.484;11.238;2023-02-01T05:22:45;98137.34;;;8.64;100.00
63907;BME280;50075;49.484;11.238;2023-02-01T05:25:10;98138.16;;;8.60;100.00
63907;BME280;50075;49.484;11.238;2023-02-01T05:27:36;98136.00;;;9.41;100.00
63907;BME280;50075;49.484;11.238;2023-02-01T05:30:04;98144.19;;;8.56;100.00
63907;BME280;50075;49.484;11.238;2023-02-01T05:32:29;98147.22;;;9.35;100.00
63907;BME280;50075;49.484;11.238;2023-02-01T05:34:55;98158.13;;;8.69;100.00
63907;BME280;50075;49.484;11.238;2023-02-01T05:37:20;98150.03;;;10.29;100.00
63907;BME280;50075;49.484;11.238;2023-02-01T05:39:45;98145.69;;;10.33;100.00
63907;BME280;50075;49.484;11.238;2023-02-01T05:42:11;98159.56;;;10.19;100.00
63907;BME280;50075;49.484;11.238;2023-02-01T05:44:36;98163.78;;;9.67;100.00
63907;BME280;50075;49.484;11.238;2023-02-01T05:47:01;98160.25;;;9.40;100.00
63907;BME280;50075;49.484;11.238;2023-02-01T05:49:27;98166.28;;;9.39;100.00
63907;BME280;50075;49.484;11.238;2023-02-01T05:51:52;98149.97;;;9.90;100.00
63907;BME280;50075;49.484;11.238;2023-02-01T05:54:18;98162.03;;;9.57;100.00
63907;BME280;50075;49.484;11.238;2023-02-01T05:56:43;98163.75;;;9.58;100.00
63907;BME280;50075;49.484;11.238;2023-02-01T05:59:09;98144.53;;;9.12;100.00
63907;BME280;50075;49.484;11.238;2023-02-01T06:01:34;98156.63;;;9.10;100.00
63907;BME280;50075;49.484;11.238;2023-02-01T06:04:00;98142.91;;;8.07;100.00
63907;BME280;50075;49.484;11.238;2023-02-01T06:06:25;98149.00;;;8.12;100.00
63907;BME280;50075;49.484;11.238;2023-02-01T06:08:50;98135.06;;;7.98;100.00
63907;BME280;50075;49.484;11.238;2023-02-01T06:11:16;98142.44;;;8.53;100.00
63907;BME280;50075;49.484;11.238;2023-02-01T06:13:41;98134.94;;;8.98;100.00
63907;BME280;50075;49.484;11.238;2023-02-01T06:16:07;98135.78;;;8.94;100.00
63907;BME280;50075;49.484;11.238;2023-02-01T06:18:34;98132.47;;;9.22;100.00
63907;BME280;50075;49.484;11.238;2023-02-01T06:21:00;98123.00;;;9.32;100.00
63907;BME280;50075;49.484;11.238;2023-02-01T06:23:27;98130.41;;;8.63;100.00
63907;BME280;50075;49.484;11.238;2023-02-01T06:25:58;98128.03;;;8.97;100.00
63907;BME280;50075;49.484;11.238;2023-02-01T06:28:24;98130.53;;;8.82;100.00
63907;BME280;50075;49.484;11.238;2023-02-01T06:30:50;98132.13;;;7.65;100.00
63907;BME280;50075;49.484;11.238;2023-02-01T06:33:15;98134.03;;;8.90;100.00
63907;BME280;50075;49.484;11.238;2023-02-01T06:35:42;98141.28;;;8.21;100.00
63907;BME280;50075;49.484;11.238;2023-02-01T06:38:12;98138.50;;;8.00;100.00
63907;BME280;50075;49.484;11.238;2023-02-01T06:40:38;98143.59;;;8.99;100.00
63907;BME280;50075;49.484;11.238;2023-02-01T06:43:04;98148.66;;;8.76;100.00
63907;BME280;50075;49.484;11.238;2023-02-01T06:45:29;98140.81;;;8.65;100.00
63907;BME280;50075;49.484;11.238;2023-02-01T06:47:55;98137.44;;;8.80;100.00
63907;BME280;50075;49.484;11.238;2023-02-01T06:50:20;98140.97;;;7.86;100.00
63907;BME280;50075;49.484;11.238;2023-02-01T06:52:46;98131.19;;;7.57;100.00
63907;BME280;50075;49.484;11.238;2023-02-01T06:55:11;98135.25;;;6.71;100.00
63907;BME280;50075;49.484;11.238;2023-02-01T06:57:36;98129.78;;;7.87;100.00
63907;BME280;50075;49.484;11.238;2023-02-01T07:00:03;98134.38;;;8.19;100.00
63907;BME280;50075;49.484;11.238;2023-02-01T07:02:29;98131.72;;;7.27;100.00
63907;BME280;50075;49.484;11.238;2023-02-01T07:04:54;98143.03;;;8.19;100.00
63907;BME280;50075;49.484;11.238;2023-02-01T07:07:20;98146.03;;;7.75;100.00
63907;BME280;50075;49.484;11.238;2023-02-01T07:09:50;98156.50;;;7.84;100.00
63907;BME280;50075;49.484;11.238;2023-02-01T07:12:15;98149.94;;;7.38;100.00
63907;BME280;50075;49.484;11.238;2023-02-01T07:14:41;98149.69;;;7.16;100.00
63907;BME280;50075;49.484;11.238;2023-02-01T07:17:06;98157.16;;;7.64;100.00
63907;BME280;50075;49.484;11.238;2023-02-01T07:19:32;98150.59;;;7.98;100.00
63907;BME280;50075;49.484;11.238;2023-02-01T07:21:57;98152.13;;;7.06;100.00
63907;BME280;50075;49.484;11.238;2023-02-01T07:24:22;98153.66;;;6.93;100.00
63907;BME280;50075;49.484;11.238;2023-02-01T07:26:48;98157.06;;;6.31;100.00
63907;BME280;50075;49.484;11.238;2023-02-01T07:29:16;98158.56;;;6.74;100.00
63907;BME280;50075;49.484;11.238;2023-02-01T07:31:42;98160.13;;;7.24;100.00
63907;BME280;50075;49.484;11.238;2023-02-01T07:34:07;98158.69;;;6.80;100.00
63907;BME280;50075;49.484;11.238;2023-02-01T07:36:32;98158.19;;;7.80;100.00
63907;BME280;50075;49.484;11.238;2023-02-01T07:38:59;98165.78;;;7.63;100.00
63907;BME280;50075;49.484;11.238;2023-02-01T07:41:25;98159.97;;;7.12;100.00
63907;BME280;50075;49.484;11.238;2023-02-01T07:43:53;98152.94;;;7.73;100.00
63907;BME280;50075;49.484;11.238;2023-02-01T07:46:19;98153.78;;;7.75;100.00
63907;BME280;50075;49.484;11.238;2023-02-01T07:48:45;98161.28;;;7.48;100.00
63907;BME280;50075;49.484;11.238;2023-02-01T07:51:12;98157.13;;;7.63;100.00
63907;BME280;50075;49.484;11.238;2023-02-01T07:53:38;98152.44;;;8.11;100.00
63907;BME280;50075;49.484;11.238;2023-02-01T07:56:10;98148.94;;;8.09;100.00
63907;BME280;50075;49.484;11.238;2023-02-01T07:58:36;98146.25;;;7.95;100.00
63907;BME280;50075;49.484;11.238;2023-02-01T08:01:01;98148.56;;;8.62;100.00
63907;BME280;50075;49.484;11.238;2023-02-01T08:03:49;98148.63;;;8.74;100.00
63907;BME280;50075;49.484;11.238;2023-02-01T08:06:15;98144.34;;;7.78;100.00
63907;BME280;50075;49.484;11.238;2023-02-01T08:08:41;98129.78;;;7.88;100.00
63907;BME280;50075;49.484;11.238;2023-02-01T08:11:07;98137.22;;;8.52;100.00
63907;BME280;50075;49.484;11.238;2023-02-01T08:13:33;98154.75;;;7.80;100.00
63907;BME280;50075;49.484;11.238;2023-02-01T08:16:02;98151.75;;;8.32;100.00
63907;BME280;50075;49.484;11.238;2023-02-01T08:18:28;98153.00;;;7.80;100.00
63907;BME280;50075;49.484;11.238;2023-02-01T08:20:54;98152.34;;;9.15;100.00
63907;BME280;50075;49.484;11.238;2023-02-01T08:23:20;98150.91;;;8.35;100.00
63907;BME280;50075;49.484;11.238;2023-02-01T08:25:46;98144.28;;;7.71;100.00
63907;BME280;50075;49.484;11.238;2023-02-01T08:28:11;98140.25;;;7.99;100.00
63907;BME280;50075;49.484;11.238;2023-02-01T08:30:37;98158.25;;;7.87;100.00
63907;BME280;50075;49.484;11.238;2023-02-01T08:33:04;98153.88;;;8.83;100.00
63907;BME280;50075;49.484;11.238;2023-02-01T08:35:31;98159.44;;;8.21;100.00
63907;BME280;50075;49.484;11.238;2023-02-01T08:37:56;98170.03;;;7.60;100.00
63907;BME280;50075;49.484;11.238;2023-02-01T08:40:21;98179.03;;;8.92;100.00
63907;BME280;50075;49.484;11.238;2023-02-01T08:42:47;98162.00;;;9.52;100.00
63907;BME280;50075;49.484;11.238;2023-02-01T08:45:27;98172.97;;;8.93;100.00
63907;BME280;50075;49.484;11.238;2023-02-01T08:47:53;98185.34;;;8.21;100.00
63907;BME280;50075;49.484;11.238;2023-02-01T08:50:20;98166.44;;;9.81;100.00
63907;BME280;50075;49.484;11.238;2023-02-01T08:52:46;98186.34;;;9.84;100.00
63907;BME280;50075;49.484;11.238;2023-02-01T08:55:12;98186.25;;;9.53;100.00
63907;BME280;50075;49.484;11.238;2023-02-01T08:57:38;98176.78;;;9.69;100.00
63907;BME280;50075;49.484;11.238;2023-02-01T09:00:05;98177.53;;;9.41;100.00
63907;BME280;50075;49.484;11.238;2023-02-01T09:02:31;98171.72;;;10.54;100.00
63907;BME280;50075;49.484;11.238;2023-02-01T09:04:56;98170.59;;;11.65;100.00
63907;BME280;50075;49.484;11.238;2023-02-01T09:07:22;98173.44;;;10.93;100.00
63907;BME280;50075;49.484;11.238;2023-02-01T09:09:48;98178.59;;;10.01;100.00
63907;BME280;50075;49.484;11.238;2023-02-01T09:12:13;98180.31;;;9.96;100.00
63907;BME280;50075;49.484;11.238;2023-02-01T09:14:38;98178.53;;;12.76;100.00
63907;BME280;50075;49.484;11.238;2023-02-01T09:17:04;98171.97;;;12.31;100.00
63907;BME280;50075;49.484;11.238;2023-02-01T09:19:30;98172.34;;;11.66;100.00
63907;BME280;50075;49.484;11.238;2023-02-01T09:21:56;98176.88;;;11.01;100.00
63907;BME280;50075;49.484;11.238;2023-02-01T09:24:21;98186.41;;;10.99;100.00
63907;BME280;50075;49.484;11.238;2023-02-01T09:26:46;98203.78;;;11.11;100.00
63907;BME280;50075;49.484;11.238;2023-02-01T09:29:12;98213.31;;;10.36;100.00
63907;BME280;50075;49.484;11.238;2023-02-01T09:31:39;98207.25;;;10.88;100.00
63907;BME280;50075;49.484;11.238;2023-02-01T09:34:04;98204.47;;;11.65;100.00
63907;BME280;50075;49.484;11.238;2023-02-01T09:36:30;98209.81;;;11.12;100.00
63907;BME280;50075;49.484;11.238;2023-02-01T09:38:56;98221.97;;;11.17;100.00
63907;BME280;50075;49.484;11.238;2023-02-01T09:46:41;98250.53;;;10.16;100.00
63907;BME280;50075;49.484;11.238;2023-02-01T09:49:15;98234.88;;;9.94;100.00
63907;BME280;50075;49.484;11.238;2023-02-01T09:51:46;98251.19;;;9.65;100.00
63907;BME280;50075;49.484;11.238;2023-02-01T09:54:16;98249.44;;;9.55;100.00
63907;BME280;50075;49.484;11.238;2023-02-01T09:56:56;98249.63;;;10.08;100.00
63907;BME280;50075;49.484;11.238;2023-02-01T09:59:37;98250.47;;;9.97;100.00
63907;BME280;50075;49.484;11.238;2023-02-01T10:02:08;98239.28;;;11.36;100.00
63907;BME280;50075;49.484;11.238;2023-02-01T10:04:35;98266.03;;;9.85;100.00
63907;BME280;50075;49.484;11.238;2023-02-01T10:07:13;98254.97;;;10.98;100.00
63907;BME280;50075;49.484;11.238;2023-02-01T10:24:41;98252.97;;;12.02;100.00
63907;BME280;50075;49.484;11.238;2023-02-01T10:27:20;98260.97;;;11.44;100.00
63907;BME280;50075;49.484;11.238;2023-02-01T10:29:59;98249.75;;;10.84;100.00
63907;BME280;50075;49.484;11.238;2023-02-01T10:32:33;98245.31;;;11.50;100.00
63907;BME280;50075;49.484;11.238;2023-02-01T10:35:04;98257.47;;;10.23;100.00
63907;BME280;50075;49.484;11.238;2023-02-01T10:37:34;98244.53;;;11.18;100.00
63907;BME280;50075;49.484;11.238;2023-02-01T10:40:08;98257.09;;;9.27;100.00
63907;BME280;50075;49.484;11.238;2023-02-01T10:42:35;98248.31;;;9.07;100.00
63907;BME280;50075;49.484;11.238;2023-02-01T10:45:02;98250.53;;;8.59;100.00
63907;BME280;50075;49.484;11.238;2023-02-01T10:47:28;98266.50;;;7.45;100.00
63907;BME280;50075;49.484;11.238;2023-02-01T10:52:51;98255.19;;;7.36;100.00
63907;BME280;50075;49.484;11.238;2023-02-01T10:58:06;98245.94;;;6.41;100.00
63907;BME280;50075;49.484;11.238;2023-02-01T11:01:02;98263.75;;;6.27;100.00
63907;BME280;50075;49.484;11.238;2023-02-01T11:03:40;98252.38;;;6.67;100.00
63907;BME280;50075;49.484;11.238;2023-02-01T11:06:22;98234.13;;;7.79;100.00
63907;BME280;50075;49.484;11.238;2023-02-01T11:09:00;98232.16;;;8.37;100.00
63907;BME280;50075;49.484;11.238;2023-02-01T11:11:27;98222.66;;;8.38;100.00
63907;BME280;50075;49.484;11.238;2023-02-01T11:16:40;98232.06;;;9.40;100.00
63907;BME280;50075;49.484;11.238;2023-02-01T11:19:06;98220.13;;;9.90;100.00
63907;BME280;50075;49.484;11.238;2023-02-01T11:21:34;98208.78;;;9.60;100.00
63907;BME280;50075;49.484;11.238;2023-02-01T11:24:04;98201.22;;;10.46;100.00
63907;BME280;50075;49.484;11.238;2023-02-01T11:26:32;98200.16;;;9.73;100.00
63907;BME280;50075;49.484;11.238;2023-02-01T11:29:04;98197.75;;;10.79;100.00
63907;BME280;50075;49.484;11.238;2023-02-01T11:31:30;98187.31;;;10.93;100.00
63907;BME280;50075;49.484;11.238;2023-02-01T11:34:00;98183.84;;;10.20;100.00
63907;BME280;50075;49.484;11.238;2023-02-01T11:36:32;98187.31;;;10.92;100.00
63907;BME280;50075;49.484;11.238;2023-02-01T11:42:04;98171.72;;;10.65;100.00
63907;BME280;50075;49.484;11.238;2023-02-01T11:44:41;98181.19;;;11.12;100.00
63907;BME280;50075;49.484;11.238;2023-02-01T11:49:57;98170.00;;;10.52;100.00
63907;BME280;50075;49.484;11.238;2023-02-01T11:52:51;98167.31;;;11.10;100.00
63907;BME280;50075;49.484;11.238;2023-02-01T11:55:31;98156.47;;;12.05;100.00
63907;BME280;50075;49.484;11.238;2023-02-01T12:09:16;98139.50;;;11.24;100.00
63907;BME280;50075;49.484;11.238;2023-02-01T12:39:40;98145.16;;;12.12;100.00
63907;BME280;50075;49.484;11.238;2023-02-01T12:42:26;98143.94;;;10.05;100.00
63907;BME280;50075;49.484;11.238;2023-02-01T12:44:59;98135.34;;;10.50;100.00
63907;BME280;50075;49.484;11.238;2023-02-01T12:47:39;98144.81;;;10.32;100.00
63907;BME280;50075;49.484;11.238;2023-02-01T12:52:48;98142.97;;;8.15;100.00
63907;BME280;50075;49.484;11.238;2023-02-01T12:55:20;98126.59;;;9.84;100.00
63907;BME280;50075;49.484;11.238;2023-02-01T12:57:55;98126.94;;;12.01;100.00
63907;BME280;50075;49.484;11.238;2023-02-01T13:00:37;98124.72;;;12.67;100.00
63907;BME280;50075;49.484;11.238;2023-02-01T13:03:07;98128.31;;;10.94;100.00
63907;BME280;50075;49.484;11.238;2023-02-01T13:05:51;98118.66;;;11.26;100.00
63907;BME280;50075;49.484;11.238;2023-02-01T13:09:17;98125.75;;;10.02;100.00
63907;BME280;50075;49.484;11.238;2023-02-01T13:16:44;98135.31;;;10.23;100.00
63907;BME280;50075;49.484;11.238;2023-02-01T13:22:19;98123.19;;;10.63;100.00
63907;BME280;50075;49.484;11.238;2023-02-01T13:24:53;98119.59;;;9.51;100.00
63907;BME280;50075;49.484;11.238;2023-02-01T13:27:19;98125.75;;;10.72;100.00
63907;BME280;50075;49.484;11.238;2023-02-01T13:29:50;98112.41;;;11.63;100.00
63907;BME280;50075;49.484;11.238;2023-02-01T13:42:54;98135.28;;;10.28;100.00
63907;BME280;50075;49.484;11.238;2023-02-01T13:45:25;98130.66;;;9.01;100.00
63907;BME280;50075;49.484;11.238;2023-02-01T13:47:54;98132.72;;;10.14;100.00
63907;BME280;50075;49.484;11.238;2023-02-01T13:50:37;98129.19;;;10.90;100.00
63907;BME280;50075;49.484;11.238;2023-02-01T13:55:46;98120.56;;;10.63;100.00
63907;BME280;50075;49.484;11.238;2023-02-01T13:58:35;98121.28;;;9.31;100.00
63907;BME280;50075;49.484;11.238;2023-02-01T14:03:51;98121.34;;;9.51;100.00
63907;BME280;50075;49.484;11.238;2023-02-01T14:11:52;98114.41;;;9.47;100.00
63907;BME280;50075;49.484;11.238;2023-02-01T14:19:27;98098.81;;;10.97;100.00
63907;BME280;50075;49.484;11.238;2023-02-01T14:21:57;98101.44;;;9.72;100.00
63907;BME280;50075;49.484;11.238;2023-02-01T14:24:35;98102.31;;;10.80;100.00
63907;BME280;50075;49.484;11.238;2023-02-01T14:27:17;98097.16;;;10.60;100.00
63907;BME280;50075;49.484;11.238;2023-02-01T14:29:51;98104.06;;;10.81;100.00
63907;BME280;50075;49.484;11.238;2023-02-01T14:32:24;98107.56;;;9.88;100.00
63907;BME280;50075;49.484;11.238;2023-02-01T14:34:55;98100.63;;;10.74;100.00
63907;BME280;50075;49.484;11.238;2023-02-01T14:37:32;98101.22;;;11.43;100.00
63907;BME280;50075;49.484;11.238;2023-02-01T14:42:47;98098.75;;;9.31;100.00
63907;BME280;50075;49.484;11.238;2023-02-01T15:00:49;98100.63;;;10.34;100.00
63907;BME280;50075;49.484;11.238;2023-02-01T15:14:35;98090.25;;;10.12;100.00
63907;BME280;50075;49.484;11.238;2023-02-01T15:17:03;98098.03;;;10.01;100.00
63907;BME280;50075;49.484;11.238;2023-02-01T15:19:55;98101.47;;;9.69;100.00
63907;BME280;50075;49.484;11.238;2023-02-01T15:22:21;98085.06;;;9.98;100.00
63907;BME280;50075;49.484;11.238;2023-02-01T15:25:24;98090.25;;;9.93;100.00
63907;BME280;50075;49.484;11.238;2023-02-01T15:27:50;98079.84;;;10.40;100.00
63907;BME280;50075;49.484;11.238;2023-02-01T15:30:25;98078.97;;;10.25;100.00
63907;BME280;50075;49.484;11.238;2023-02-01T15:32:52;98084.06;;;9.35;100.00
63907;BME280;50075;49.484;11.238;2023-02-01T15:35:46;98073.03;;;8.16;100.00
63907;BME280;50075;49.484;11.238;2023-02-01T15:41:04;98081.59;;;8.09;100.00
63907;BME280;50075;49.484;11.238;2023-02-01T15:46:03;98067.56;;;9.20;100.00
63907;BME280;50075;49.484;11.238;2023-02-01T15:48:38;98072.88;;;10.42;100.00
63907;BME280;50075;49.484;11.238;2023-02-01T15:51:04;98067.72;;;10.59;100.00
63907;BME280;50075;49.484;11.238;2023-02-01T15:53:30;98073.31;;;11.66;100.00